EDT,Max TemperatureF,Mean TemperatureF,Min TemperatureF,Max Dew PointF,MeanDew PointF,Min DewpointF,Max Humidity, Mean Humidity, Min Humidity, Max Sea Level PressureIn, Mean Sea Level PressureIn, Min Sea Level PressureIn, Max VisibilityMiles, Mean VisibilityMiles, Min VisibilityMiles, Max Wind SpeedMPH, Mean Wind SpeedMPH, Max Gust SpeedMPH,PrecipitationIn, CloudCover, Events, WindDirDegrees
2013-6-1,76,70,64,68,63,61,93,79,64,29.90,29.84,29.75,10,8,2,21,10,26,0.59,6,Rain-Thunderstorm,225
2013-6-2,72,63,54,62,57,48,84,75,66,30.00,29.89,29.77,10,10,10,18,12,22,0.02,6,,297
2013-6-3,68,57,46,49,44,38,86,60,34,30.09,30.03,29.98,10,10,10,15,6,18,0.00,3,,13
2013-6-4,75,61,46,49,44,40,93,61,29,30.16,30.11,30.07,10,10,10,17,6,26,0.00,0,,104
2013-6-5,81,67,53,51,47,45,77,53,28,30.09,29.99,29.87,10,10,10,18,7,25,0.00,0,,91
2013-6-6,74,67,59,58,53,47,84,71,57,29.89,29.83,29.80,10,10,6,13,7,16,0.01,3,Rain,59
2013-6-7,75,66,56,55,54,51,93,70,46,29.90,29.85,29.82,10,6,2,14,8,18,0.00,4,,52
2013-6-8,77,67,56,59,54,51,86,66,46,30.02,29.96,29.89,10,9,3,13,5,21,0.00,5,,142
2013-6-9,82,73,63,65,59,54,84,62,39,30.03,29.97,29.85,10,8,4,15,6,21,0.01,5,Rain,163
2013-6-10,78,72,66,65,63,59,93,76,58,29.84,29.80,29.76,10,9,2,17,10,24,0.14,6,Rain,220
2013-6-11,85,74,63,68,63,57,93,67,40,29.95,29.90,29.85,10,8,3,12,7,15,T,1,Rain-Thunderstorm,261
2013-6-12,91,79,66,71,68,64,84,66,47,29.90,29.81,29.66,10,9,5,35,9,41,1.01,1,Thunderstorm,229
2013-6-13,77,68,59,66,62,51,93,72,50,29.96,29.74,29.60,10,7,1,25,11,41,1.63,6,Rain-Thunderstorm,335
2013-6-14,78,67,55,61,57,53,93,70,47,30.09,30.02,29.94,10,10,8,10,4,22,0.00,1,,360
2013-6-15,80,70,60,63,59,55,84,66,48,30.10,30.02,29.94,10,10,8,14,6,20,T,2,,188
2013-6-16,79,73,67,67,65,61,84,76,67,29.98,29.94,29.90,10,9,2,28,9,38,0.19,5,Rain-Thunderstorm,249
2013-6-17,85,76,67,68,65,59,100,72,43,29.99,29.94,29.87,10,7,2,9,4,14,0.00,4,,255
2013-6-18,81,73,65,67,62,57,87,68,48,30.01,29.91,29.86,10,10,6,15,8,21,0.00,1,,18
2013-6-19,79,69,58,58,54,51,93,66,39,30.12,30.08,30.01,10,9,3,12,6,15,0.00,0,,77
2013-6-20,86,73,60,60,57,53,84,61,37,30.18,30.14,30.12,10,10,10,10,4,26,0.00,2,,185
2013-6-21,87,78,68,63,58,56,68,53,37,30.19,30.14,30.02,10,10,10,14,7,21,0.00,0,,193
2013-6-22,89,79,69,69,66,62,90,70,50,30.13,30.08,30.02,10,10,7,25,7,36,0.00,1,Thunderstorm,214
2013-6-23,88,78,67,68,65,63,93,72,51,30.11,30.07,30.02,10,8,0,30,6,47,0.47,2,Rain,199
2013-6-24,85,77,69,70,67,65,90,71,51,30.12,30.05,29.98,10,8,2,15,7,21,0.11,1,Rain-Thunderstorm,208
2013-6-25,89,80,70,72,68,63,93,72,50,30.00,29.94,29.84,10,9,5,23,9,32,0.05,0,Rain,229
2013-6-26,85,77,68,72,68,64,93,77,61,29.91,29.82,29.73,10,10,2,17,8,26,0.13,3,Rain-Thunderstorm,211
2013-6-27,84,77,69,71,68,66,100,80,59,29.80,29.75,29.67,10,7,0,17,8,24,T,5,Fog-Rain,276
2013-6-28,83,74,64,67,63,57,93,71,49,29.67,29.63,29.59,10,9,2,32,9,43,0.24,3,Rain-Thunderstorm,277
2013-6-29,73,68,62,64,62,60,93,81,68,29.70,29.62,29.57,10,7,0,8,4,,0.36,5,Fog-Rain,271
2013-6-30,74,69,63,64,62,58,93,81,68,29.88,29.77,29.68,10,9,5,21,10,26,0.02,7,Rain-Thunderstorm,56